sensor_id;sensor_type;location;lat;lon;timestamp;pressure;altitude;pressure_sealevel;temperature;humidity
69535;BME280;56754;51.568;5.048;2022-10-28T00:00:50;101700.41;;;17.42;73.59
69535;BME280;56754;51.568;5.048;2022-10-28T00:03:16;101702.31;;;17.41;73.71
69535;BME280;56754;51.568;5.048;2022-10-28T00:05:42;101694.56;;;17.40;73.63
69535;BME280;56754;51.568;5.048;2022-10-28T00:08:07;101687.91;;;17.37;73.68
69535;BME280;56754;51.568;5.048;2022-10-28T00:10:33;101702.22;;;17.38;73.65
69535;BME280;56754;51.568;5.048;2022-10-28T00:12:58;101703.66;;;17.35;73.58
69535;BME280;56754;51.568;5.048;2022-10-28T00:15:23;101702.88;;;17.35;73.86
69535;BME280;56754;51.568;5.048;2022-10-28T00:17:48;101702.41;;;17.33;74.06
69535;BME280;56754;51.568;5.048;2022-10-28T00:20:14;101704.31;;;17.32;73.88
69535;BME280;56754;51.568;5.048;2022-10-28T00:22:39;101695.75;;;17.30;73.98
69535;BME280;56754;51.568;5.048;2022-10-28T00:25:05;101704.22;;;17.28;73.92
69535;BME280;56754;51.568;5.048;2022-10-28T00:27:30;101704.22;;;17.28;74.01
69535;BME280;56754;51.568;5.048;2022-10-28T00:29:55;101701.81;;;17.27;74.11
69535;BME280;56754;51.568;5.048;2022-10-28T00:32:21;101699.47;;;17.25;74.25
69535;BME280;56754;51.568;5.048;2022-10-28T00:34:46;101701.38;;;17.25;74.06
69535;BME280;56754;51.568;5.048;2022-10-28T00:37:12;101690.91;;;17.23;74.11
69535;BME280;56754;51.568;5.048;2022-10-28T00:39:37;101688.53;;;17.22;74.05
69535;BME280;56754;51.568;5.048;2022-10-28T00:42:02;101682.34;;;17.21;74.30
69535;BME280;56754;51.568;5.048;2022-10-28T00:44:57;101676.94;;;17.21;74.37
69535;BME280;56754;51.568;5.048;2022-10-28T00:53:04;101670.63;;;17.17;74.40
69535;BME280;56754;51.568;5.048;2022-10-28T00:55:30;101670.97;;;17.16;74.36
69535;BME280;56754;51.568;5.048;2022-10-28T00:57:57;101673.69;;;17.16;74.50
69535;BME280;56754;51.568;5.048;2022-10-28T01:00:24;101682.88;;;17.15;74.50
69535;BME280;56754;51.568;5.048;2022-10-28T01:02:50;101676.69;;;17.14;74.55
69535;BME280;56754;51.568;5.048;2022-10-28T01:05:20;101669.38;;;17.15;74.59
69535;BME280;56754;51.568;5.048;2022-10-28T01:07:47;101667.03;;;17.13;74.68
69535;BME280;56754;51.568;5.048;2022-10-28T01:10:14;101670.50;;;17.14;74.33
69535;BME280;56754;51.568;5.048;2022-10-28T01:13:42;101661.94;;;17.12;74.72
69535;BME280;56754;51.568;5.048;2022-10-28T01:16:27;101662.72;;;17.12;74.59
69535;BME280;56754;51.568;5.048;2022-10-28T01:30:22;101644.16;;;17.11;74.57
69535;BME280;56754;51.568;5.048;2022-10-28T01:33:03;101639.06;;;17.09;74.72
69535;BME280;56754;51.568;5.048;2022-10-28T01:43:59;101643.22;;;17.06;74.74
69535;BME280;56754;51.568;5.048;2022-10-28T01:46:33;101633.56;;;17.05;74.55
69535;BME280;56754;51.568;5.048;2022-10-28T01:49:07;101647.06;;;17.05;74.69
69535;BME280;56754;51.568;5.048;2022-10-28T01:51:37;101645.50;;;17.04;74.89
69535;BME280;56754;51.568;5.048;2022-10-28T01:54:06;101655.50;;;17.04;74.71
69535;BME280;56754;51.568;5.048;2022-10-28T01:56:36;101642.34;;;17.02;74.57
69535;BME280;56754;51.568;5.048;2022-10-28T01:59:04;101643.13;;;17.03;74.77
69535;BME280;56754;51.568;5.048;2022-10-28T02:01:31;101639.63;;;17.02;74.85
69535;BME280;56754;51.568;5.048;2022-10-28T02:03:56;101632.66;;;17.01;74.65
69535;BME280;56754;51.568;5.048;2022-10-28T02:06:25;101638.38;;;17.00;74.76
69535;BME280;56754;51.568;5.048;2022-10-28T02:20:10;101640.66;;;16.98;74.84
69535;BME280;56754;51.568;5.048;2022-10-28T02:26:40;101635.56;;;16.96;74.93
69535;BME280;56754;51.568;5.048;2022-10-28T02:29:07;101640.19;;;16.96;74.88
69535;BME280;56754;51.568;5.048;2022-10-28T02:32:02;101636.69;;;16.95;74.95
69535;BME280;56754;51.568;5.048;2022-10-28T02:34:31;101629.69;;;16.94;74.81
69535;BME280;56754;51.568;5.048;2022-10-28T02:37:01;101635.09;;;16.94;75.05
69535;BME280;56754;51.568;5.048;2022-10-28T02:39:49;101644.31;;;16.93;74.93
69535;BME280;56754;51.568;5.048;2022-10-28T02:42:20;101633.84;;;16.92;74.86
69535;BME280;56754;51.568;5.048;2022-10-28T02:44:49;101636.53;;;16.92;74.95
69535;BME280;56754;51.568;5.048;2022-10-28T02:47:20;101636.88;;;16.90;74.93
69535;BME280;56754;51.568;5.048;2022-10-28T02:49:55;101636.88;;;16.90;74.98
69535;BME280;56754;51.568;5.048;2022-10-28T02:52:22;101629.91;;;16.89;75.03
69535;BME280;56754;51.568;5.048;2022-10-28T02:54:52;101629.91;;;16.89;74.97
69535;BME280;56754;51.568;5.048;2022-10-28T02:57:33;101618.31;;;16.89;75.13
69535;BME280;56754;51.568;5.048;2022-10-28T03:00:01;101626.41;;;16.89;75.05
69535;BME280;56754;51.568;5.048;2022-10-28T03:02:27;101637.22;;;16.89;75.11
69535;BME280;56754;51.568;5.048;2022-10-28T03:04:52;101632.16;;;16.87;75.03
69535;BME280;56754;51.568;5.048;2022-10-28T03:07:18;101634.84;;;16.87;74.96
69535;BME280;56754;51.568;5.048;2022-10-28T03:09:43;101625.97;;;16.87;75.05
69535;BME280;56754;51.568;5.048;2022-10-28T03:12:09;101634.06;;;16.87;75.00
69535;BME280;56754;51.568;5.048;2022-10-28T03:14:34;101630.59;;;16.86;75.04
69535;BME280;56754;51.568;5.048;2022-10-28T03:16:59;101630.59;;;16.86;74.93
69535;BME280;56754;51.568;5.048;2022-10-28T03:19:25;101620.09;;;16.85;75.03
69535;BME280;56754;51.568;5.048;2022-10-28T03:21:50;101624.72;;;16.84;75.00
69535;BME280;56754;51.568;5.048;2022-10-28T03:24:15;101622.03;;;16.84;75.16
69535;BME280;56754;51.568;5.048;2022-10-28T03:26:41;101625.03;;;16.82;75.03
69535;BME280;56754;51.568;5.048;2022-10-28T03:29:06;101612.34;;;16.83;75.06
69535;BME280;56754;51.568;5.048;2022-10-28T03:31:31;101602.66;;;16.82;75.05
69535;BME280;56754;51.568;5.048;2022-10-28T03:33:57;101616.16;;;16.82;74.96
69535;BME280;56754;51.568;5.048;2022-10-28T03:36:22;101614.25;;;16.82;74.93
69535;BME280;56754;51.568;5.048;2022-10-28T03:38:47;101609.97;;;16.81;75.07
69535;BME280;56754;51.568;5.048;2022-10-28T03:41:13;101610.75;;;16.82;75.11
69535;BME280;56754;51.568;5.048;2022-10-28T03:43:38;101614.59;;;16.81;75.30
69535;BME280;56754;51.568;5.048;2022-10-28T03:46:03;101610.75;;;16.82;74.86
69535;BME280;56754;51.568;5.048;2022-10-28T03:48:29;101613.00;;;16.80;75.11
69535;BME280;56754;51.568;5.048;2022-10-28T03:50:54;101612.19;;;16.79;74.96
69535;BME280;56754;51.568;5.048;2022-10-28T03:53:20;101611.41;;;16.79;75.23
69535;BME280;56754;51.568;5.048;2022-10-28T03:55:53;101618.72;;;16.78;74.98
69535;BME280;56754;51.568;5.048;2022-10-28T03:58:19;101612.56;;;16.78;75.18
69535;BME280;56754;51.568;5.048;2022-10-28T04:00:47;101614.47;;;16.77;75.20
69535;BME280;56754;51.568;5.048;2022-10-28T04:03:12;101623.34;;;16.78;75.25
69535;BME280;56754;51.568;5.048;2022-10-28T04:05:37;101614.47;;;16.77;75.32
69535;BME280;56754;51.568;5.048;2022-10-28T04:08:03;101620.66;;;16.78;75.10
69535;BME280;56754;51.568;5.048;2022-10-28T04:10:28;101620.19;;;16.76;75.22
69535;BME280;56754;51.568;5.048;2022-10-28T04:12:59;101622.56;;;16.77;75.01
69535;BME280;56754;51.568;5.048;2022-10-28T04:15:24;101614.47;;;16.77;75.12
69535;BME280;56754;51.568;5.048;2022-10-28T04:17:49;101612.09;;;16.76;75.13
69535;BME280;56754;51.568;5.048;2022-10-28T04:20:15;101620.97;;;16.76;75.14
69535;BME280;56754;51.568;5.048;2022-10-28T04:22:40;101621.44;;;16.78;75.18
69535;BME280;56754;51.568;5.048;2022-10-28T04:25:05;101610.16;;;16.76;75.19
69535;BME280;56754;51.568;5.048;2022-10-28T04:27:31;101617.94;;;16.78;75.13
69535;BME280;56754;51.568;5.048;2022-10-28T04:29:56;101615.25;;;16.78;75.09
69535;BME280;56754;51.568;5.048;2022-10-28T04:32:21;101620.66;;;16.78;75.13
69535;BME280;56754;51.568;5.048;2022-10-28T04:34:46;101609.06;;;16.77;75.22
69535;BME280;56754;51.568;5.048;2022-10-28T04:37:12;101603.66;;;16.77;75.09
69535;BME280;56754;51.568;5.048;2022-10-28T04:39:37;101619.88;;;16.77;75.10
69535;BME280;56754;51.568;5.048;2022-10-28T04:42:02;101614.47;;;16.77;75.22
69535;BME280;56754;51.568;5.048;2022-10-28T04:44:28;101620.66;;;16.78;74.97
69535;BME280;56754;51.568;5.048;2022-10-28T04:46:54;101610.16;;;16.76;75.05
69535;BME280;56754;51.568;5.048;2022-10-28T04:49:20;101596.34;;;16.78;75.21
69535;BME280;56754;51.568;5.048;2022-10-28T04:51:45;101599.84;;;16.78;75.02
69535;BME280;56754;51.568;5.048;2022-10-28T04:54:10;101597.13;;;16.78;75.01
69535;BME280;56754;51.568;5.048;2022-10-28T04:56:36;101605.25;;;16.78;75.04
69535;BME280;56754;51.568;5.048;2022-10-28T04:59:01;101599.84;;;16.78;nan
69535;BME280;56754;51.568;5.048;2022-10-28T05:01:26;101606.03;;;16.79;74.87
69535;BME280;56754;51.568;5.048;2022-10-28T05:03:52;101608.72;;;16.79;75.05
69535;BME280;56754;51.568;5.048;2022-10-28T05:06:17;101608.72;;;16.79;74.97
69535;BME280;56754;51.568;5.048;2022-10-28T05:08:42;101607.59;;;16.80;75.01
69535;BME280;56754;51.568;5.048;2022-10-28T05:11:07;101609.50;;;16.79;75.08
69535;BME280;56754;51.568;5.048;2022-10-28T05:13:33;101606.03;;;16.79;74.86
69535;BME280;56754;51.568;5.048;2022-10-28T05:15:58;101605.25;;;16.78;74.86
69535;BME280;56754;51.568;5.048;2022-10-28T05:18:23;101616.03;;;16.78;74.96
69535;BME280;56754;51.568;5.048;2022-10-28T05:20:48;101613.34;;;16.78;74.89
69535;BME280;56754;51.568;5.048;2022-10-28T05:23:14;101611.41;;;16.79;74.79
69535;BME280;56754;51.568;5.048;2022-10-28T05:25:39;101609.50;;;16.79;74.89
69535;BME280;56754;51.568;5.048;2022-10-28T05:28:06;101616.81;;;16.79;nan
69535;BME280;56754;51.568;5.048;2022-10-28T05:30:31;101605.25;;;16.78;74.87
69535;BME280;56754;51.568;5.048;2022-10-28T05:33:00;101599.84;;;16.78;74.89
69535;BME280;56754;51.568;5.048;2022-10-28T05:35:25;101592.53;;;16.79;74.95
69535;BME280;56754;51.568;5.048;2022-10-28T05:37:50;101592.53;;;16.79;74.85
69535;BME280;56754;51.568;5.048;2022-10-28T05:40:16;101589.81;;;16.79;74.88
69535;BME280;56754;51.568;5.048;2022-10-28T05:42:42;101583.63;;;16.78;74.78
69535;BME280;56754;51.568;5.048;2022-10-28T05:45:08;101592.88;;;16.77;74.77
69535;BME280;56754;51.568;5.048;2022-10-28T05:47:34;101596.34;;;16.78;74.80
69535;BME280;56754;51.568;5.048;2022-10-28T05:49:59;101591.75;;;16.78;74.68
69535;BME280;56754;51.568;5.048;2022-10-28T05:52:24;101580.16;;;16.78;74.78
69535;BME280;56754;51.568;5.048;2022-10-28T05:54:49;101586.34;;;16.78;74.75
69535;BME280;56754;51.568;5.048;2022-10-28T05:57:15;101588.25;;;16.78;74.76
69535;BME280;56754;51.568;5.048;2022-10-28T05:59:40;101592.88;;;16.77;74.80
69535;BME280;56754;51.568;5.048;2022-10-28T06:02:07;101595.88;;;16.76;74.80
69535;BME280;56754;51.568;5.048;2022-10-28T06:04:34;101592.38;;;16.75;74.88
69535;BME280;56754;51.568;5.048;2022-10-28T06:06:59;101593.97;;;16.76;74.82
69535;BME280;56754;51.568;5.048;2022-10-28T06:09:29;101595.88;;;16.76;74.89
69535;BME280;56754;51.568;5.048;2022-10-28T06:11:54;101604.78;;;16.76;74.82
69535;BME280;56754;51.568;5.048;2022-10-28T06:14:19;101599.06;;;16.78;74.69
69535;BME280;56754;51.568;5.048;2022-10-28T06:16:45;101600.75;;;16.82;74.75
69535;BME280;56754;51.568;5.048;2022-10-28T06:19:10;101603.25;;;16.88;74.67
69535;BME280;56754;51.568;5.048;2022-10-28T06:21:35;101599.09;;;16.90;74.81
69535;BME280;56754;51.568;5.048;2022-10-28T06:24:00;101594.94;;;16.93;74.92
69535;BME280;56754;51.568;5.048;2022-10-28T06:26:26;101598.41;;;16.93;74.72
69535;BME280;56754;51.568;5.048;2022-10-28T06:28:51;101590.00;;;16.95;74.73
69535;BME280;56754;51.568;5.048;2022-10-28T06:31:16;101597.75;;;16.96;74.99
69535;BME280;56754;51.568;5.048;2022-10-28T06:33:41;101589.34;;;16.98;74.66
69535;BME280;56754;51.568;5.048;2022-10-28T06:36:07;101604.72;;;16.97;74.55
69535;BME280;56754;51.568;5.048;2022-10-28T06:38:32;101600.13;;;16.98;74.52
69535;BME280;56754;51.568;5.048;2022-10-28T06:40:57;101592.81;;;16.98;74.48
69535;BME280;56754;51.568;5.048;2022-10-28T06:43:23;101603.63;;;16.98;74.44
69535;BME280;56754;51.568;5.048;2022-10-28T06:45:48;101599.78;;;16.99;74.44
69535;BME280;56754;51.568;5.048;2022-10-28T06:48:13;101594.38;;;16.99;74.42
69535;BME280;56754;51.568;5.048;2022-10-28T06:50:38;101588.97;;;16.99;74.31
69535;BME280;56754;51.568;5.048;2022-10-28T06:53:04;101594.38;;;16.99;74.35
69535;BME280;56754;51.568;5.048;2022-10-28T06:55:29;101592.81;;;16.98;74.32
69535;BME280;56754;51.568;5.048;2022-10-28T06:57:58;101582.81;;;16.99;74.04
69535;BME280;56754;51.568;5.048;2022-10-28T07:00:24;101588.19;;;16.99;74.14
69535;BME280;56754;51.568;5.048;2022-10-28T07:02:51;101571.22;;;16.98;74.08
69535;BME280;56754;51.568;5.048;2022-10-28T07:05:16;101583.59;;;16.99;74.00
69535;BME280;56754;51.568;5.048;2022-10-28T07:07:42;101590.56;;;17.00;74.04
69535;BME280;56754;51.568;5.048;2022-10-28T07:10:07;101595.94;;;17.00;73.93
69535;BME280;56754;51.568;5.048;2022-10-28T07:12:32;101591.38;;;17.01;73.96
69535;BME280;56754;51.568;5.048;2022-10-28T07:14:58;101599.47;;;17.01;73.98
69535;BME280;56754;51.568;5.048;2022-10-28T07:17:23;101611.84;;;17.02;73.70
69535;BME280;56754;51.568;5.048;2022-10-28T07:19:49;101618.81;;;17.03;73.65
69535;BME280;56754;51.568;5.048;2022-10-28T07:22:14;101615.78;;;17.04;73.72
69535;BME280;56754;51.568;5.048;2022-10-28T07:24:39;101613.88;;;17.05;73.58
69535;BME280;56754;51.568;5.048;2022-10-28T07:27:05;101616.22;;;17.06;73.72
69535;BME280;56754;51.568;5.048;2022-10-28T07:29:30;101609.72;;;17.08;73.63
69535;BME280;56754;51.568;5.048;2022-10-28T07:31:55;101610.19;;;17.10;73.61
69535;BME280;56754;51.568;5.048;2022-10-28T07:34:21;101617.16;;;17.11;73.56
69535;BME280;56754;51.568;5.048;2022-10-28T07:36:53;101616.81;;;17.12;73.65
69535;BME280;56754;51.568;5.048;2022-10-28T07:39:19;101616.47;;;17.14;73.54
69535;BME280;56754;51.568;5.048;2022-10-28T07:41:44;101618.84;;;17.15;73.66
69535;BME280;56754;51.568;5.048;2022-10-28T07:44:10;101615.81;;;17.17;73.35
69535;BME280;56754;51.568;5.048;2022-10-28T07:46:36;101608.97;;;17.19;73.25
69535;BME280;56754;51.568;5.048;2022-10-28T07:49:01;101618.31;;;17.22;73.39
69535;BME280;56754;51.568;5.048;2022-10-28T07:51:26;101595.56;;;17.23;73.30
69535;BME280;56754;51.568;5.048;2022-10-28T07:53:52;101600.66;;;17.24;73.41
69535;BME280;56754;51.568;5.048;2022-10-28T07:56:17;101603.00;;;17.26;73.20
69535;BME280;56754;51.568;5.048;2022-10-28T07:58:43;101603.88;;;17.30;73.26
69535;BME280;56754;51.568;5.048;2022-10-28T08:01:10;101604.34;;;17.32;73.02
69535;BME280;56754;51.568;5.048;2022-10-28T08:03:37;101612.91;;;17.34;73.17
69535;BME280;56754;51.568;5.048;2022-10-28T08:06:12;101613.38;;;17.36;73.08
69535;BME280;56754;51.568;5.048;2022-10-28T08:08:38;101614.16;;;17.37;73.19
69535;BME280;56754;51.568;5.048;2022-10-28T08:11:18;101626.53;;;17.38;72.95
69535;BME280;56754;51.568;5.048;2022-10-28T08:13:44;101621.59;;;17.40;72.77
69535;BME280;56754;51.568;5.048;2022-10-28T08:16:10;101634.75;;;17.41;72.39
69535;BME280;56754;51.568;5.048;2022-10-28T08:18:37;101627.13;;;17.43;72.33
69535;BME280;56754;51.568;5.048;2022-10-28T08:21:03;101632.16;;;17.45;72.32
69535;BME280;56754;51.568;5.048;2022-10-28T08:23:29;101639.19;;;17.46;72.25
69535;BME280;56754;51.568;5.048;2022-10-28T08:25:55;101640.75;;;17.47;72.03
69535;BME280;56754;51.568;5.048;2022-10-28T08:28:21;101639.28;;;17.49;72.21
69535;BME280;56754;51.568;5.048;2022-10-28T08:30:46;101628.16;;;17.51;71.73
69535;BME280;56754;51.568;5.048;2022-10-28T08:33:13;101622.41;;;17.52;72.19
69535;BME280;56754;51.568;5.048;2022-10-28T08:35:38;101619.38;;;17.54;72.37
69535;BME280;56754;51.568;5.048;2022-10-28T08:38:04;101625.56;;;17.55;71.93
69535;BME280;56754;51.568;5.048;2022-10-28T08:49:01;101625.31;;;17.60;72.06
69535;BME280;56754;51.568;5.048;2022-10-28T08:51:39;101621.16;;;17.62;72.17
69535;BME280;56754;51.568;5.048;2022-10-28T08:54:12;101628.94;;;17.64;72.26
69535;BME280;56754;51.568;5.048;2022-10-28T08:56:42;101633.56;;;17.63;72.33
69535;BME280;56754;51.568;5.048;2022-10-28T08:59:21;101626.25;;;17.64;72.15
69535;BME280;56754;51.568;5.048;2022-10-28T09:01:52;101630.19;;;17.66;72.02
69535;BME280;56754;51.568;5.048;2022-10-28T09:06:54;101639.84;;;17.67;71.89
69535;BME280;56754;51.568;5.048;2022-10-28T09:09:21;101644.94;;;17.69;71.87
69535;BME280;56754;51.568;5.048;2022-10-28T09:17:16;101636.94;;;17.72;71.88
69535;BME280;56754;51.568;5.048;2022-10-28T09:22:37;101656.31;;;17.74;71.66
69535;BME280;56754;51.568;5.048;2022-10-28T09:25:36;101650.56;;;17.76;71.93
69535;BME280;56754;51.568;5.048;2022-10-28T09:34:10;101643.94;;;17.86;71.33
69535;BME280;56754;51.568;5.048;2022-10-28T09:36:47;101649.03;;;17.87;71.10
69535;BME280;56754;51.568;5.048;2022-10-28T09:39:16;101645.97;;;17.89;70.94
69535;BME280;56754;51.568;5.048;2022-10-28T09:41:45;101656.09;;;17.92;71.20
69535;BME280;56754;51.568;5.048;2022-10-28T09:44:19;101653.06;;;17.93;71.15
69535;BME280;56754;51.568;5.048;2022-10-28T09:46:50;101656.25;;;17.95;71.21
69535;BME280;56754;51.568;5.048;2022-10-28T09:49:21;101659.72;;;17.96;71.13
69535;BME280;56754;51.568;5.048;2022-10-28T09:52:00;101636.97;;;17.97;71.22
69535;BME280;56754;51.568;5.048;2022-10-28T09:54:32;101656.34;;;17.99;71.15
69535;BME280;56754;51.568;5.048;2022-10-28T09:56:58;101637.84;;;18.01;71.04
69535;BME280;56754;51.568;5.048;2022-10-28T09:59:24;101635.59;;;18.03;71.00
69535;BME280;56754;51.568;5.048;2022-10-28T10:11:05;101638.19;;;18.12;71.10
69535;BME280;56754;51.568;5.048;2022-10-28T10:13:48;101627.34;;;18.12;70.96
69535;BME280;56754;51.568;5.048;2022-10-28T10:16:52;101635.94;;;18.14;70.93
69535;BME280;56754;51.568;5.048;2022-10-28T10:19:19;101623.97;;;18.15;70.91
69535;BME280;56754;51.568;5.048;2022-10-28T10:24:33;101625.22;;;18.17;70.82
69535;BME280;56754;51.568;5.048;2022-10-28T10:27:01;101636.81;;;18.18;71.03
69535;BME280;56754;51.568;5.048;2022-10-28T10:29:27;101638.41;;;18.19;71.05
69535;BME280;56754;51.568;5.048;2022-10-28T10:32:31;101637.28;;;18.20;70.86
69535;BME280;56754;51.568;5.048;2022-10-28T10:37:26;101658.22;;;18.23;70.73
69535;BME280;56754;51.568;5.048;2022-10-28T10:40:04;101649.75;;;18.25;70.62
69535;BME280;56754;51.568;5.048;2022-10-28T10:42:31;101644.81;;;18.27;70.55
69535;BME280;56754;51.568;5.048;2022-10-28T10:45:02;101644.47;;;18.28;70.63
69535;BME280;56754;51.568;5.048;2022-10-28T10:47:34;101634.06;;;18.30;70.50
69535;BME280;56754;51.568;5.048;2022-10-28T10:50:28;101637.25;;;18.32;70.51
69535;BME280;56754;51.568;5.048;2022-10-28T10:52:56;101635.41;;;18.36;70.47
69535;BME280;56754;51.568;5.048;2022-10-28T10:55:36;101630.91;;;18.40;70.35
69535;BME280;56754;51.568;5.048;2022-10-28T10:58:04;101629.44;;;18.43;70.19
69535;BME280;56754;51.568;5.048;2022-10-28T11:00:37;101627.16;;;18.45;70.17
69535;BME280;56754;51.568;5.048;2022-10-28T11:03:23;101633.81;;;18.48;70.15
69535;BME280;56754;51.568;5.048;2022-10-28T11:05:53;101632.34;;;18.50;69.97
69535;BME280;56754;51.568;5.048;2022-10-28T11:08:27;101635.16;;;18.54;69.73
69535;BME280;56754;51.568;5.048;2022-10-28T11:13:36;101627.13;;;18.57;69.88
69535;BME280;56754;51.568;5.048;2022-10-28T11:16:06;101621.38;;;18.59;69.75
69535;BME280;56754;51.568;5.048;2022-10-28T11:18:45;101635.69;;;18.59;69.75
69535;BME280;56754;51.568;5.048;2022-10-28T11:26:26;101641.19;;;18.63;69.82
69535;BME280;56754;51.568;5.048;2022-10-28T11:29:12;101631.50;;;18.62;69.81
69535;BME280;56754;51.568;5.048;2022-10-28T11:39:36;101642.34;;;18.62;69.83
69535;BME280;56754;51.568;5.048;2022-10-28T11:42:22;101632.66;;;18.61;69.77
69535;BME280;56754;51.568;5.048;2022-10-28T11:44:57;101639.63;;;18.62;69.93
69535;BME280;56754;51.568;5.048;2022-10-28T11:53:16;101654.41;;;18.64;69.90
69535;BME280;56754;51.568;5.048;2022-10-28T12:04:46;101654.06;;;18.66;69.82
69535;BME280;56754;51.568;5.048;2022-10-28T12:10:03;101665.34;;;18.68;69.88
69535;BME280;56754;51.568;5.048;2022-10-28T12:21:26;101674.69;;;18.71;69.55
69535;BME280;56754;51.568;5.048;2022-10-28T12:23:56;101665.44;;;18.72;69.67
69535;BME280;56754;51.568;5.048;2022-10-28T12:26:47;101661.94;;;18.71;69.47
69535;BME280;56754;51.568;5.048;2022-10-28T12:29:17;101666.22;;;18.72;69.65
69535;BME280;56754;51.568;5.048;2022-10-28T12:31:50;101678.97;;;18.72;69.66
69535;BME280;56754;51.568;5.048;2022-10-28T12:34:21;101684.88;;;18.74;69.55
69535;BME280;56754;51.568;5.048;2022-10-28T12:37:08;101682.16;;;18.74;69.61
69535;BME280;56754;51.568;5.048;2022-10-28T12:40:03;101669.41;;;18.74;69.45
69535;BME280;56754;51.568;5.048;2022-10-28T12:42:33;101684.09;;;18.73;69.42
69535;BME280;56754;51.568;5.048;2022-10-28T12:45:03;101691.84;;;18.75;69.46
69535;BME280;56754;51.568;5.048;2022-10-28T12:47:40;101697.28;;;18.75;69.43
69535;BME280;56754;51.568;5.048;2022-10-28T12:58:01;101703.03;;;18.73;69.42
69535;BME280;56754;51.568;5.048;2022-10-28T13:00:31;101696.00;;;18.72;69.66
69535;BME280;56754;51.568;5.048;2022-10-28T13:03:01;101698.72;;;18.72;69.41
69535;BME280;56754;51.568;5.048;2022-10-28T13:05:37;101701.91;;;18.74;69.41
69535;BME280;56754;51.568;5.048;2022-10-28T13:27:39;101712.94;;;18.81;69.36
69535;BME280;56754;51.568;5.048;2022-10-28T13:30:05;101721.09;;;18.81;69.24
69535;BME280;56754;51.568;5.048;2022-10-28T13:32:38;101730.78;;;18.82;69.28
69535;BME280;56754;51.568;5.048;2022-10-28T13:35:20;101733.47;;;18.82;69.30
69535;BME280;56754;51.568;5.048;2022-10-28T13:37:47;101733.47;;;18.82;69.20
69535;BME280;56754;51.568;5.048;2022-10-28T13:43:16;101729.63;;;18.83;69.24
69535;BME280;56754;51.568;5.048;2022-10-28T13:45:54;101750.19;;;18.84;69.50
69535;BME280;56754;51.568;5.048;2022-10-28T13:48:30;101744.41;;;18.86;69.29
69535;BME280;56754;51.568;5.048;2022-10-28T14:01:51;101744.19;;;18.91;69.38
69535;BME280;56754;51.568;5.048;2022-10-28T14:07:13;101735.69;;;18.93;69.34
69535;BME280;56754;51.568;5.048;2022-10-28T14:09:40;101738.06;;;18.94;69.45
69535;BME280;56754;51.568;5.048;2022-10-28T14:12:24;101733.78;;;18.93;69.37
69535;BME280;56754;51.568;5.048;2022-10-28T14:15:04;101728.38;;;18.93;69.37
69535;BME280;56754;51.568;5.048;2022-10-28T14:17:36;101727.25;;;18.94;69.20
69535;BME280;56754;51.568;5.048;2022-10-28T14:20:04;101735.00;;;18.96;69.36
69535;BME280;56754;51.568;5.048;2022-10-28T14:22:34;101740.53;;;18.99;69.38
69535;BME280;56754;51.568;5.048;2022-10-28T14:25:01;101751.03;;;19.01;69.15
69535;BME280;56754;51.568;5.048;2022-10-28T14:40:31;101772.25;;;18.99;69.11
69535;BME280;56754;51.568;5.048;2022-10-28T14:43:05;101776.09;;;18.98;69.14
69535;BME280;56754;51.568;5.048;2022-10-28T14:48:54;101769.44;;;18.95;69.41
69535;BME280;56754;51.568;5.048;2022-10-28T14:51:23;101768.66;;;18.95;69.30
69535;BME280;56754;51.568;5.048;2022-10-28T14:53:50;101760.53;;;18.95;69.43
69535;BME280;56754;51.568;5.048;2022-10-28T14:56:24;101784.91;;;18.95;69.39
69535;BME280;56754;51.568;5.048;2022-10-28T14:58:50;101778.72;;;18.94;69.49
69535;BME280;56754;51.568;5.048;2022-10-28T15:03:46;101780.63;;;18.94;69.38
69535;BME280;56754;51.568;5.048;2022-10-28T15:06:25;101783.34;;;18.94;69.54
69535;BME280;56754;51.568;5.048;2022-10-28T15:08:52;101770.13;;;18.92;69.59
69535;BME280;56754;51.568;5.048;2022-10-28T15:11:18;101780.63;;;18.94;69.57
69535;BME280;56754;51.568;5.048;2022-10-28T15:13:47;101786.06;;;18.94;69.64
69535;BME280;56754;51.568;5.048;2022-10-28T15:16:23;101787.16;;;18.93;69.54
69535;BME280;56754;51.568;5.048;2022-10-28T15:18:52;101791.13;;;18.95;69.50
69535;BME280;56754;51.568;5.048;2022-10-28T15:21:20;101786.06;;;18.94;69.51
69535;BME280;56754;51.568;5.048;2022-10-28T15:24:02;101787.16;;;18.93;69.58
69535;BME280;56754;51.568;5.048;2022-10-28T15:26:27;101789.09;;;18.92;69.66
69535;BME280;56754;51.568;5.048;2022-10-28T15:28:53;101800.72;;;18.93;69.69
69535;BME280;56754;51.568;5.048;2022-10-28T15:31:19;101797.56;;;18.91;69.70
69535;BME280;56754;51.568;5.048;2022-10-28T15:33:44;101803.78;;;18.91;69.54
69535;BME280;56754;51.568;5.048;2022-10-28T15:36:22;101805.69;;;18.91;69.58
69535;BME280;56754;51.568;5.048;2022-10-28T15:39:04;101787.84;;;18.90;69.59
69535;BME280;56754;51.568;5.048;2022-10-28T15:41:37;101785.13;;;18.90;69.77
69535;BME280;56754;51.568;5.048;2022-10-28T15:44:03;101792.16;;;18.91;69.64
69535;BME280;56754;51.568;5.048;2022-10-28T15:46:30;101795.97;;;18.90;69.65
69535;BME280;56754;51.568;5.048;2022-10-28T15:48:57;101807.63;;;18.90;69.53
69535;BME280;56754;51.568;5.048;2022-10-28T15:51:24;101814.59;;;18.91;69.67
69535;BME280;56754;51.568;5.048;2022-10-28T15:53:50;101826.22;;;18.92;69.61
69535;BME280;56754;51.568;5.048;2022-10-28T15:56:21;101823.19;;;18.93;69.75
69535;BME280;56754;51.568;5.048;2022-10-28T16:01:38;101832.78;;;18.91;69.59
69535;BME280;56754;51.568;5.048;2022-10-28T16:06:47;101841.25;;;18.89;69.60
69535;BME280;56754;51.568;5.048;2022-10-28T16:09:17;101841.59;;;18.88;69.87
69535;BME280;56754;51.568;5.048;2022-10-28T16:11:46;101847.00;;;18.88;69.79